Ruby Indah — 9VND — position and weather

sailwx.info

Track history (hours):
 
Tides and Currents Weather Stations Pressure Air Temp Water Temp Dewpoint Dewpoint Depression Visibility Wind Speed Wind Dir Waves Ship Positions

Ruby Indah

Last reported at 2017-Apr-11 21:19 UTC. Time now 2017-May-29 18:56 UTC.
Position N 46°13' W 125°36'.
Warning: this ship's position is 47 days out of date.

Length 229 m; draft 12.9 m.

Type: Cargo ship. MMSI: 564748000.

Date/timePositionNaut miles runAvg speedWind from/ knotsBaromVisibWave heightAir tempDewpointWater temp
2017-Apr-11 21:19N 46°13' W 125°36'3 9.8
2017-Apr-11 20:59N 46°13' W 125°31'6 9.8
2017-Apr-11 20:25N 46°12' W 125°23'4 9.9
2017-Apr-11 20:00N 46°12' W 125°17'5 9.8
2017-Apr-11 19:30N 46°12' W 125°10'5 9.6
2017-Apr-11 19:00N 46°12' W 125°03'5 9.5
2017-Apr-11 18:31N 46°13' W 124°56'2 3.1
2017-Apr-11 18:00N 46°12' W 124°54'2 4.1
2017-Apr-11 17:30N 46°12' W 124°51'5 9.7
2017-Apr-11 17:00N 46°12' W 124°44'5 9.7
2017-Apr-11 16:30N 46°12' W 124°37'5 9.6
2017-Apr-11 16:00N 46°12' W 124°30'5 9.2
2017-Apr-11 15:30N 46°12' W 124°23'4 8.6
2017-Apr-11 15:00N 46°12' W 124°17'5 9.4
2017-Apr-11 14:30N 46°13' W 124°10'1010.1
2017-Apr-11 13:30N 46°12' W 123°56'510.5
2017-Apr-11 13:01N 46°12' W 123°48'611.8
2017-Apr-11 12:31N 46°15' W 123°41'713.0
2017-Apr-11 12:01N 46°16' W 123°32'510.2
2017-Apr-11 11:31N 46°13' W 123°25'5 9.4
2017-Apr-11 11:00N 46°09' W 123°22'612.2
2017-Apr-11 10:30N 46°10' W 123°14'611.9
2017-Apr-11 10:01N 46°10' W 123°05'612.2
2017-Apr-11 09:30N 46°06' W 122°58'510.0
2017-Apr-11 09:00N 46°03' W 122°53'510.1
2017-Apr-11 08:31N 45°58' W 122°50'612.1
2017-Apr-11 08:00N 45°53' W 122°48'612.1
2017-Apr-11 07:30N 45°47' W 122°46'612.6
2017-Apr-11 07:01N 45°40' W 122°46'2 3.5
2017-Apr-11 06:30N 45°39' W 122°46'0 0.0
2017-Apr-11 06:00N 45°39' W 122°46'0 0.0
2017-Apr-11 05:30N 45°39' W 122°46'0 0.0
2017-Apr-11 04:57N 45°39' W 122°46'0 0.0
2017-Apr-11 04:27N 45°39' W 122°46'0 0.0
2017-Apr-11 03:57N 45°39' W 122°46'0 0.0
2017-Apr-11 03:30N 45°39' W 122°46'0 0.0
2017-Apr-11 03:00N 45°39' W 122°46'0 0.0
2017-Apr-11 02:30N 45°39' W 122°46'0 0.0
2017-Apr-11 01:57N 45°39' W 122°46'0 0.0
2017-Apr-11 01:30N 45°39' W 122°46'0 0.0
2017-Apr-11 00:57N 45°39' W 122°46'0 0.0
2017-Apr-11 00:27N 45°39' W 122°46'0 0.0
2017-Apr-10 23:57N 45°39' W 122°46'0 0.0
2017-Apr-10 23:30N 45°39' W 122°46'0 0.0
2017-Apr-10 22:57N 45°39' W 122°46'0 0.0
2017-Apr-10 22:27N 45°39' W 122°46'0 0.0
2017-Apr-10 22:00N 45°39' W 122°46'0 0.0
2017-Apr-10 21:27N 45°39' W 122°46'0 0.0
2017-Apr-10 21:00N 45°39' W 122°46'0 0.0
2017-Apr-10 20:27N 45°39' W 122°46'0 0.0
2017-Apr-10 20:00N 45°39' W 122°46'0 0.0
2017-Apr-10 19:30N 45°39' W 122°46'0 0.0
2017-Apr-10 19:00N 45°39' W 122°46'0 0.0
2017-Apr-10 18:27N 45°39' W 122°46'0 0.0
2017-Apr-10 18:00N 45°39' W 122°46'0 0.0
2017-Apr-10 17:30N 45°39' W 122°46'0 0.0
2017-Apr-10 16:57N 45°39' W 122°46'0 0.0
2017-Apr-10 16:30N 45°39' W 122°46'0 0.0
2017-Apr-10 16:00N 45°39' W 122°46'0 0.0
2017-Apr-10 15:30N 45°39' W 122°46'0 0.0
2017-Apr-10 15:00N 45°39' W 122°46'0 0.0
2017-Apr-10 13:59N 45°39' W 122°46'0 0.0
2017-Apr-10 13:29N 45°39' W 122°46'0 0.0
2017-Apr-10 13:00N 45°39' W 122°46'0 0.0
2017-Apr-10 12:26N 45°39' W 122°46'0 0.0
2017-Apr-10 11:59N 45°39' W 122°46'0 0.0
2017-Apr-10 11:26N 45°39' W 122°46'0 0.0
2017-Apr-10 10:59N 45°39' W 122°46'0 0.0
2017-Apr-10 10:29N 45°39' W 122°46'0 0.0
2017-Apr-10 09:59N 45°39' W 122°46'0 0.0
2017-Apr-10 09:29N 45°39' W 122°46'0 0.0
2017-Apr-10 08:56N 45°39' W 122°46'0 0.0
2017-Apr-10 08:29N 45°39' W 122°46'0 0.0
2017-Apr-10 07:59N 45°39' W 122°46'0 0.0
2017-Apr-10 07:29N 45°39' W 122°46'0 0.0
2017-Apr-10 06:59N 45°39' W 122°46'0 0.0
2017-Apr-10 06:29N 45°39' W 122°46'0 0.0
2017-Apr-10 05:56N 45°39' W 122°46'0 0.0
2017-Apr-10 05:29N 45°39' W 122°46'0 0.0
2017-Apr-10 04:56N 45°39' W 122°46'0 0.0
2017-Apr-10 04:26N 45°39' W 122°46'0 0.0
2017-Apr-10 03:59N 45°39' W 122°46'0 0.0
2017-Apr-10 03:29N 45°39' W 122°46'0 0.0
2017-Apr-10 02:59N 45°39' W 122°46'0 0.0
2017-Apr-10 02:29N 45°39' W 122°46'0 0.0
2017-Apr-10 01:53N 45°39' W 122°46'0 0.0
2017-Apr-10 01:26N 45°39' W 122°46'0 0.0
2017-Apr-10 00:59N 45°39' W 122°46'0 0.0
2017-Apr-10 00:29N 45°39' W 122°46'0 0.0
2017-Apr-09 23:59N 45°39' W 122°46'0 0.0
2017-Apr-09 23:29N 45°39' W 122°46'0 0.0
2017-Apr-09 22:59N 45°39' W 122°46'0 0.0
2017-Apr-09 22:29N 45°39' W 122°46'0 0.0
2017-Apr-09 21:59N 45°39' W 122°46'0 0.0
2017-Apr-09 21:29N 45°39' W 122°46'0 0.0
2017-Apr-09 20:59N 45°39' W 122°46'0 0.0
2017-Apr-09 20:29N 45°39' W 122°46'0 0.0
2017-Apr-09 19:59N 45°39' W 122°46'0 0.0
2017-Apr-09 19:29N 45°39' W 122°46'0 0.0
2017-Apr-09 18:59N 45°39' W 122°46'0 0.0
2017-Apr-09 18:26N 45°39' W 122°46'0 0.0
2017-Apr-09 17:59N 45°39' W 122°46'0 0.0
2017-Apr-09 17:29N 45°39' W 122°46'0 0.0
2017-Apr-09 16:53N 45°39' W 122°46'0 0.0
2017-Apr-09 16:29N 45°39' W 122°46'0 0.0
2017-Apr-09 15:59N 45°39' W 122°46'0 0.0
2017-Apr-09 15:29N 45°39' W 122°46'0 0.0
2017-Apr-09 14:59N 45°39' W 122°46'0 0.0
2017-Apr-09 14:29N 45°39' W 122°46'0 0.0
2017-Apr-09 13:29N 45°39' W 122°46'0 0.0
2017-Apr-09 12:56N 45°39' W 122°46'0 0.0
2017-Apr-09 12:26N 45°39' W 122°46'0 0.0
2017-Apr-09 11:59N 45°39' W 122°46'0 0.0
2017-Apr-09 11:29N 45°39' W 122°46'0 0.0
2017-Apr-09 10:59N 45°39' W 122°46'0 0.0
2017-Apr-09 10:26N 45°39' W 122°46'0 0.0
2017-Apr-09 09:56N 45°39' W 122°46'0 0.0
2017-Apr-09 09:26N 45°39' W 122°46'0 0.0
2017-Apr-09 08:59N 45°39' W 122°46'0 0.0
2017-Apr-09 08:29N 45°39' W 122°46'0 0.0
2017-Apr-09 07:59N 45°39' W 122°46'0 0.0
2017-Apr-09 07:29N 45°39' W 122°46'0 0.0
2017-Apr-09 06:59N 45°39' W 122°46'0 0.0
2017-Apr-09 06:29N 45°39' W 122°46'0 0.0
2017-Apr-09 05:59N 45°39' W 122°46'0 0.0
2017-Apr-09 05:29N 45°39' W 122°46'0 0.0
2017-Apr-09 04:55N 45°39' W 122°46'0 0.0
2017-Apr-09 04:28N 45°39' W 122°46'0 0.0
2017-Apr-09 03:58N 45°39' W 122°46'0 0.0
2017-Apr-09 03:28N 45°39' W 122°46'0 0.0
2017-Apr-09 02:58N 45°39' W 122°46'0 0.0
2017-Apr-09 02:28N 45°39' W 122°46'0 0.0
2017-Apr-09 01:55N 45°39' W 122°46'0 0.0
2017-Apr-09 01:28N 45°39' W 122°46'0 0.0
2017-Apr-09 00:58N 45°39' W 122°46'0 0.0
2017-Apr-09 00:25N 45°39' W 122°46'0 0.0
2017-Apr-08 23:55N 45°39' W 122°46'0 0.0
2017-Apr-08 23:25N 45°39' W 122°46'0 0.0
2017-Apr-08 22:55N 45°39' W 122°46'0 0.0
2017-Apr-08 22:28N 45°39' W 122°46'0 0.0
2017-Apr-08 21:58N 45°39' W 122°46'0 0.0
2017-Apr-08 21:28N 45°39' W 122°46'0 0.0
2017-Apr-08 20:58N 45°39' W 122°46'0 0.0
2017-Apr-08 20:28N 45°39' W 122°46'0 0.0
2017-Apr-08 19:58N 45°39' W 122°46'0 0.0
2017-Apr-08 19:28N 45°39' W 122°46'0 0.0
2017-Apr-08 18:58N 45°39' W 122°46'0 0.0
2017-Apr-08 18:30N 45°39' W 122°46'0 0.0
2017-Apr-08 17:58N 45°39' W 122°46'0 0.0
2017-Apr-08 17:28N 45°39' W 122°46'0 0.0
2017-Apr-08 16:58N 45°39' W 122°46'0 0.0
2017-Apr-08 16:28N 45°39' W 122°46'0 0.0
2017-Apr-08 15:55N 45°39' W 122°46'0 0.0
2017-Apr-08 15:28N 45°39' W 122°46'0 0.0
2017-Apr-08 14:58N 45°39' W 122°46'0 0.0
2017-Apr-08 14:28N 45°39' W 122°46'0 0.0
2017-Apr-08 13:28N 45°39' W 122°46'0 0.0
2017-Apr-08 12:58N 45°39' W 122°46'0 0.0
2017-Apr-08 12:28N 45°39' W 122°46'0 0.0
2017-Apr-08 11:58N 45°39' W 122°46'0 0.0
2017-Apr-08 11:28N 45°39' W 122°46'0 0.0
2017-Apr-08 10:58N 45°39' W 122°46'0 0.0
2017-Apr-08 10:28N 45°39' W 122°46'0 0.0
2017-Apr-08 09:58N 45°39' W 122°46'0 0.0
2017-Apr-08 09:28N 45°39' W 122°46'0 0.0
2017-Apr-08 08:58N 45°39' W 122°46'0 0.0
2017-Apr-08 08:28N 45°39' W 122°46'0 0.0
2017-Apr-08 07:55N 45°39' W 122°46'0 0.0
2017-Apr-08 07:28N 45°39' W 122°46'0 0.0
2017-Apr-08 06:58N 45°39' W 122°46'0 0.0
2017-Apr-08 06:28N 45°39' W 122°46'0 0.0
2017-Apr-08 05:55N 45°39' W 122°46'0 0.0
2017-Apr-08 05:28N 45°39' W 122°46'0 0.0
2017-Apr-08 04:58N 45°39' W 122°46'0 0.0
2017-Apr-08 04:28N 45°39' W 122°46'0 0.0
2017-Apr-08 03:58N 45°39' W 122°46'0 0.0
2017-Apr-08 03:25N 45°39' W 122°46'0 0.0
2017-Apr-08 02:58N 45°39' W 122°46'0 0.0
2017-Apr-08 02:28N 45°39' W 122°46'0 0.0
2017-Apr-08 01:58N 45°39' W 122°46'0 0.0
2017-Apr-08 01:28N 45°39' W 122°46'0 0.0
2017-Apr-08 00:58N 45°39' W 122°46'0 0.0
2017-Apr-08 00:28N 45°39' W 122°46'0 0.0
2017-Apr-07 23:58N 45°39' W 122°46'0 0.0
2017-Apr-07 23:25N 45°39' W 122°46'0 0.0
2017-Apr-07 23:01N 45°39' W 122°46'0 0.0
2017-Apr-07 22:31N 45°39' W 122°46'0 0.0
2017-Apr-07 22:01N 45°39' W 122°46'0 0.0
2017-Apr-07 21:30N 45°39' W 122°46'0 0.0
2017-Apr-07 21:00N 45°39' W 122°46'0 0.0
2017-Apr-07 20:31N 45°39' W 122°46'0 0.0
2017-Apr-07 20:00N 45°39' W 122°46'0 0.0
2017-Apr-07 19:30N 45°39' W 122°46'0 0.0
2017-Apr-07 19:00N 45°39' W 122°46'0 0.0
2017-Apr-07 18:30N 45°39' W 122°46'0 0.0
2017-Apr-07 17:57N 45°39' W 122°46'0 0.0
2017-Apr-07 17:30N 45°39' W 122°46'0 0.0
2017-Apr-07 16:57N 45°39' W 122°46'0 0.0
2017-Apr-07 16:27N 45°39' W 122°46'0 0.0
2017-Apr-07 16:00N 45°39' W 122°46'0 0.0
2017-Apr-07 15:27N 45°39' W 122°46'0 0.0
2017-Apr-07 14:57N 45°39' W 122°46'0 0.0
2017-Apr-07 13:51N 45°39' W 122°46'0 0.0
2017-Apr-07 13:30N 45°39' W 122°46'0 0.0
2017-Apr-07 13:00N 45°39' W 122°46'0 0.0
2017-Apr-07 12:30N 45°39' W 122°46'0 0.0
2017-Apr-07 12:00N 45°39' W 122°46'0 0.0
2017-Apr-07 11:30N 45°39' W 122°46'0 0.0
2017-Apr-07 11:00N 45°39' W 122°46'0 0.0
2017-Apr-07 10:30N 45°39' W 122°46'0 0.0
2017-Apr-07 10:00N 45°39' W 122°46'0 0.0
2017-Apr-07 09:30N 45°39' W 122°46'0 0.0
2017-Apr-07 09:00N 45°39' W 122°46'0 0.0
2017-Apr-07 08:30N 45°39' W 122°46'0 0.0
2017-Apr-07 07:39N 45°39' W 122°46'0 0.0
2017-Apr-07 07:30N 45°39' W 122°46'0 0.0
2017-Apr-07 07:00N 45°39' W 122°46'0 0.0
2017-Apr-07 06:30N 45°39' W 122°46'0 0.0
2017-Apr-07 06:00N 45°39' W 122°46'0 0.0
2017-Apr-07 05:30N 45°39' W 122°46'0 0.0
2017-Apr-07 04:57N 45°39' W 122°46'0 0.0
2017-Apr-07 04:30N 45°39' W 122°46'0 0.0
2017-Apr-07 03:57N 45°39' W 122°46'0 0.0
2017-Apr-07 03:30N 45°39' W 122°46'0 0.0
2017-Apr-07 03:00N 45°39' W 122°46'0 0.0
2017-Apr-07 02:27N 45°39' W 122°46'0 0.0
2017-Apr-07 02:00N 45°39' W 122°46'0 0.0
2017-Apr-07 01:30N 45°39' W 122°46'0 0.0
2017-Apr-07 01:00N 45°39' W 122°46'0 0.0
2017-Apr-07 00:30N 45°39' W 122°46'0 0.0
2017-Apr-07 00:00N 45°39' W 122°46'0 0.0
2017-Apr-06 23:30N 45°39' W 122°46'0 0.0
2017-Apr-06 23:00N 45°39' W 122°46'0 0.0
2017-Apr-06 22:30N 45°39' W 122°46'0 0.1
2017-Apr-06 21:57N 45°39' W 122°46'0 0.0
2017-Apr-06 21:30N 45°39' W 122°46'0 0.0
2017-Apr-06 21:00N 45°39' W 122°46'0 0.0
2017-Apr-06 20:24N 45°39' W 122°46'0 0.0
2017-Apr-06 20:00N 45°39' W 122°46'0 0.0
2017-Apr-06 19:30N 45°39' W 122°46'0 0.0
2017-Apr-06 18:51N 45°39' W 122°46'0 0.0
2017-Apr-06 18:30N 45°39' W 122°46'0 0.0
2017-Apr-06 18:00N 45°39' W 122°46'0 0.0
2017-Apr-06 17:30N 45°39' W 122°46'0 0.0
2017-Apr-06 17:00N 45°39' W 122°46'0 0.0
2017-Apr-06 16:30N 45°39' W 122°46'0 0.0
2017-Apr-06 16:00N 45°39' W 122°46'0 0.0
2017-Apr-06 15:30N 45°39' W 122°46'0 0.0
2017-Apr-06 15:00N 45°39' W 122°46'0 0.0
2017-Apr-06 14:27N 45°39' W 122°46'0 0.0
2017-Apr-06 13:30N 45°39' W 122°46'0 0.0
2017-Apr-06 12:57N 45°39' W 122°46'0 0.0
2017-Apr-06 12:30N 45°39' W 122°46'0 0.0
2017-Apr-06 11:59N 45°39' W 122°46'0 0.0
2017-Apr-06 11:29N 45°39' W 122°46'0 0.0
2017-Apr-06 10:59N 45°39' W 122°46'0 0.0
2017-Apr-06 10:29N 45°39' W 122°46'0 0.0
2017-Apr-06 09:59N 45°39' W 122°46'0 0.0
2017-Apr-06 09:29N 45°39' W 122°46'0 0.0
2017-Apr-06 08:59N 45°39' W 122°46'0 0.0
2017-Apr-06 08:29N 45°39' W 122°46'0 0.0
2017-Apr-06 07:59N 45°39' W 122°46'0 0.0
2017-Apr-06 07:29N 45°39' W 122°46'0 0.0
2017-Apr-06 06:59N 45°39' W 122°46'0 0.0
2017-Apr-06 06:29N 45°39' W 122°46'0 0.0
2017-Apr-06 05:59N 45°39' W 122°46'0 0.0
2017-Apr-06 05:29N 45°39' W 122°46'0 0.0
2017-Apr-06 04:59N 45°39' W 122°46'0 0.0
2017-Apr-06 04:29N 45°39' W 122°46'0 0.0
2017-Apr-06 03:56N 45°39' W 122°46'0 0.0
2017-Apr-06 03:29N 45°39' W 122°46'0 0.0
2017-Apr-06 02:59N 45°39' W 122°46'0 0.0
2017-Apr-06 02:29N 45°39' W 122°46'0 0.0
2017-Apr-06 01:59N 45°39' W 122°46'0 0.0
2017-Apr-06 01:29N 45°39' W 122°46'0 0.0
2017-Apr-06 00:53N 45°39' W 122°46'0 0.0
2017-Apr-06 00:29N 45°39' W 122°46'0 0.0
2017-Apr-05 23:59N 45°39' W 122°46'0 0.0
2017-Apr-05 23:29N 45°39' W 122°46'0 0.0
2017-Apr-05 22:59N 45°39' W 122°46'0 0.0
2017-Apr-05 22:29N 45°39' W 122°46'0 0.0
2017-Apr-05 21:59N 45°39' W 122°46'0 0.0
2017-Apr-05 21:29N 45°39' W 122°46'0 0.0
2017-Apr-05 20:59N 45°39' W 122°46'0 0.0
2017-Apr-05 20:29N 45°39' W 122°46'0 0.0
2017-Apr-05 19:59N 45°39' W 122°46'0 0.0
2017-Apr-05 19:29N 45°39' W 122°46'0 0.1
2017-Apr-05 18:59N 45°39' W 122°46'0 0.0
2017-Apr-05 18:29N 45°39' W 122°46'0 0.0
2017-Apr-05 17:59N 45°39' W 122°46'0 0.0
2017-Apr-05 17:26N 45°39' W 122°46'0 0.0
2017-Apr-05 16:59N 45°39' W 122°46'0 0.0
2017-Apr-05 16:29N 45°39' W 122°46'0 0.0
2017-Apr-05 15:56N 45°39' W 122°46'0 0.0
2017-Apr-05 15:29N 45°39' W 122°46'0 0.0
2017-Apr-05 14:59N 45°39' W 122°46'0 0.0
2017-Apr-05 14:26N 45°39' W 122°46'0 0.0
2017-Apr-05 13:29N 45°39' W 122°46'0 0.0
2017-Apr-05 12:59N 45°39' W 122°46'0 0.0
2017-Apr-05 12:29N 45°39' W 122°46'0 0.0
2017-Apr-05 11:59N 45°39' W 122°46'0 0.0
2017-Apr-05 11:29N 45°39' W 122°46'0 0.0
2017-Apr-05 10:59N 45°39' W 122°46'0 0.0
2017-Apr-05 10:29N 45°39' W 122°46'0 0.0
2017-Apr-05 09:59N 45°39' W 122°46'0 0.0
2017-Apr-05 09:29N 45°39' W 122°46'0 0.0
2017-Apr-05 08:59N 45°39' W 122°46'0 0.0
2017-Apr-05 08:29N 45°39' W 122°46'0 0.0
2017-Apr-05 07:59N 45°39' W 122°46'0 0.0
2017-Apr-05 07:29N 45°39' W 122°46'0 0.0
2017-Apr-05 06:56N 45°39' W 122°46'0 0.0
2017-Apr-05 06:29N 45°39' W 122°46'0 0.0
2017-Apr-05 05:59N 45°39' W 122°46'0 0.0
2017-Apr-05 05:26N 45°39' W 122°46'0 0.0
2017-Apr-05 04:59N 45°39' W 122°46'0 0.0
2017-Apr-05 04:28N 45°39' W 122°46'0 0.0
2017-Apr-05 03:58N 45°39' W 122°46'0 0.0
2017-Apr-05 03:28N 45°39' W 122°46'0 0.0
2017-Apr-05 02:58N 45°39' W 122°46'0 0.0
2017-Apr-05 02:28N 45°39' W 122°46'0 0.0
2017-Apr-05 01:58N 45°39' W 122°46'0 0.0
2017-Apr-05 01:28N 45°39' W 122°46'0 0.0
2017-Apr-05 00:58N 45°39' W 122°46'0 0.0
2017-Apr-05 00:25N 45°39' W 122°46'0 0.0
2017-Apr-04 23:58N 45°39' W 122°46'0 0.0
2017-Apr-04 23:28N 45°39' W 122°46'0 0.0
2017-Apr-04 22:58N 45°39' W 122°46'0 0.0
2017-Apr-04 22:28N 45°39' W 122°46'0 0.0
2017-Apr-04 21:58N 45°39' W 122°46'0 0.0
2017-Apr-04 21:28N 45°39' W 122°46'0 0.0
2017-Apr-04 20:58N 45°39' W 122°46'0 0.0
2017-Apr-04 20:30N 45°39' W 122°46'1 1.8
2017-Apr-04 20:00N 45°39' W 122°45'1 1.7
2017-Apr-04 19:31N 45°39' W 122°44'0 0.0
2017-Apr-04 18:56N 45°39' W 122°44'0 0.0
2017-Apr-04 18:29N 45°39' W 122°44'0 0.0
2017-Apr-04 17:59N 45°39' W 122°44'0 0.1
2017-Apr-04 17:29N 45°39' W 122°45'0 0.1
2017-Apr-04 16:59N 45°39' W 122°44'0 0.0
2017-Apr-04 16:29N 45°39' W 122°44'0 0.0
2017-Apr-04 15:59N 45°39' W 122°44'0 0.0
2017-Apr-04 15:29N 45°39' W 122°44'0 0.0
2017-Apr-04 14:59N 45°39' W 122°44'0 0.0
2017-Apr-04 14:29N 45°39' W 122°44'0 0.0
2017-Apr-04 13:29N 45°39' W 122°44'0 0.0
2017-Apr-04 12:59N 45°39' W 122°44'0 0.0
2017-Apr-04 12:29N 45°39' W 122°44'0 0.0
2017-Apr-04 11:59N 45°39' W 122°44'0 0.0
2017-Apr-04 11:29N 45°39' W 122°44'0 0.0
2017-Apr-04 10:59N 45°39' W 122°44'0 0.0
2017-Apr-04 10:29N 45°39' W 122°44'0 0.0
2017-Apr-04 09:59N 45°39' W 122°44'0 0.0
2017-Apr-04 09:29N 45°39' W 122°44'0 0.0
2017-Apr-04 08:59N 45°39' W 122°44'0 0.0
2017-Apr-04 08:29N 45°39' W 122°44'0 0.0
2017-Apr-04 07:59N 45°39' W 122°44'0 0.0
2017-Apr-04 07:29N 45°39' W 122°44'0 0.0
2017-Apr-04 06:59N 45°39' W 122°44'0 0.0
2017-Apr-04 06:29N 45°39' W 122°44'0 0.0
2017-Apr-04 05:59N 45°39' W 122°44'0 0.0
2017-Apr-04 05:29N 45°39' W 122°44'0 0.0
2017-Apr-04 04:59N 45°39' W 122°44'0 0.0
2017-Apr-04 04:29N 45°39' W 122°44'0 0.0
2017-Apr-04 03:56N 45°39' W 122°44'0 0.0
2017-Apr-04 03:29N 45°39' W 122°44'0 0.0
2017-Apr-04 02:59N 45°39' W 122°44'0 0.0
2017-Apr-04 02:29N 45°39' W 122°44'0 0.0
2017-Apr-04 01:59N 45°39' W 122°44'0 0.0
2017-Apr-04 01:29N 45°39' W 122°44'0 0.0
2017-Apr-04 00:56N 45°39' W 122°44'0 0.0
2017-Apr-04 00:29N 45°39' W 122°44'0 0.0
2017-Apr-03 23:59N 45°39' W 122°44'0 0.0
2017-Apr-03 23:29N 45°39' W 122°44'0 0.0
2017-Apr-03 22:53N 45°39' W 122°44'0 0.0
2017-Apr-03 22:29N 45°39' W 122°44'0 0.0
2017-Apr-03 21:59N 45°39' W 122°44'0 0.0
2017-Apr-03 21:29N 45°39' W 122°44'0 0.0
2017-Apr-03 20:59N 45°39' W 122°44'0 0.0
2017-Apr-03 20:29N 45°39' W 122°44'0 0.0
2017-Apr-03 19:59N 45°39' W 122°44'0 0.0
2017-Apr-03 19:29N 45°39' W 122°44'0 0.0
2017-Apr-03 18:56N 45°39' W 122°44'0 0.0
2017-Apr-03 18:29N 45°39' W 122°44'0 0.0
2017-Apr-03 17:59N 45°39' W 122°44'0 0.0
2017-Apr-03 17:28N 45°39' W 122°44'0 0.0
2017-Apr-03 16:52N 45°39' W 122°44'0 0.0
2017-Apr-03 16:28N 45°39' W 122°44'0 0.0
2017-Apr-03 15:58N 45°39' W 122°44'0 0.0
2017-Apr-03 15:28N 45°39' W 122°44'0 0.0
2017-Apr-03 14:58N 45°39' W 122°44'0 0.0
2017-Apr-03 13:58N 45°39' W 122°44'0 0.0
2017-Apr-03 13:28N 45°39' W 122°44'0 0.0
2017-Apr-03 12:58N 45°39' W 122°44'0 0.0
2017-Apr-03 12:28N 45°39' W 122°44'0 0.0
2017-Apr-03 11:58N 45°39' W 122°44'0 0.0
2017-Apr-03 11:28N 45°39' W 122°44'0 0.0
2017-Apr-03 10:58N 45°39' W 122°44'0 0.0
2017-Apr-03 10:28N 45°39' W 122°44'0 0.0
2017-Apr-03 09:58N 45°39' W 122°44'0 0.0
2017-Apr-03 09:28N 45°39' W 122°44'0 0.0
2017-Apr-03 08:58N 45°39' W 122°44'0 0.0
2017-Apr-03 08:28N 45°39' W 122°44'0 0.0
2017-Apr-03 07:58N 45°39' W 122°44'0 0.0
2017-Apr-03 07:28N 45°39' W 122°44'0 0.0
2017-Apr-03 06:58N 45°39' W 122°44'0 0.0
2017-Apr-03 06:28N 45°39' W 122°44'0 0.0
2017-Apr-03 05:58N 45°39' W 122°44'0 0.0
2017-Apr-03 05:28N 45°39' W 122°44'0 0.0
2017-Apr-03 04:58N 45°39' W 122°44'0 0.0
2017-Apr-03 04:28N 45°39' W 122°44'0 0.0
2017-Apr-03 03:58N 45°39' W 122°44'0 0.0
2017-Apr-03 03:28N 45°39' W 122°44'0 0.0
2017-Apr-03 02:55N 45°39' W 122°44'0 0.0
2017-Apr-03 02:16N 45°39' W 122°44'0 0.0
2017-Apr-03 01:58N 45°39' W 122°44'0 0.0
2017-Apr-03 01:28N 45°39' W 122°44'0 0.0
2017-Apr-03 00:58N 45°39' W 122°44'0 0.1
2017-Apr-03 00:28N 45°39' W 122°45'0 0.1
2017-Apr-02 23:58N 45°39' W 122°44'0 0.0
2017-Apr-02 23:28N 45°39' W 122°44'0 0.0
2017-Apr-02 22:55N 45°39' W 122°44'0 0.0
2017-Apr-02 22:28N 45°39' W 122°44'0 0.0
2017-Apr-02 21:58N 45°39' W 122°44'0 0.0
2017-Apr-02 21:28N 45°39' W 122°44'0 0.0
2017-Apr-02 20:58N 45°39' W 122°44'0 0.0
2017-Apr-02 20:28N 45°39' W 122°44'0 0.0
2017-Apr-02 19:58N 45°39' W 122°44'0 0.0
2017-Apr-02 19:28N 45°39' W 122°44'0 0.0
2017-Apr-02 18:58N 45°39' W 122°44'0 0.0
2017-Apr-02 18:28N 45°39' W 122°44'0 0.0
2017-Apr-02 17:58N 45°39' W 122°44'0 0.0
2017-Apr-02 17:28N 45°39' W 122°44'0 0.0
2017-Apr-02 16:58N 45°39' W 122°44'0 0.0
2017-Apr-02 16:28N 45°39' W 122°44'0 0.0
2017-Apr-02 15:58N 45°39' W 122°44'0 0.0
2017-Apr-02 15:28N 45°39' W 122°44'0 0.0
2017-Apr-02 14:58N 45°39' W 122°44'0 0.0
2017-Apr-02 14:28N 45°39' W 122°44'0 0.0
2017-Apr-02 13:28N 45°39' W 122°44'0 0.0
2017-Apr-02 12:58N 45°39' W 122°44'0 0.0
2017-Apr-02 12:28N 45°39' W 122°44'0 0.0
2017-Apr-02 11:58N 45°39' W 122°44'0 0.0
2017-Apr-02 11:28N 45°39' W 122°44'0 0.0
2017-Apr-02 11:01N 45°39' W 122°44'0 0.0
2017-Apr-02 10:30N 45°39' W 122°44'0 0.0
2017-Apr-02 09:58N 45°39' W 122°44'0 0.0
2017-Apr-02 09:31N 45°39' W 122°44'0 0.0
2017-Apr-02 09:00N 45°39' W 122°44'0 0.0
2017-Apr-02 08:30N 45°39' W 122°44'0 0.0
2017-Apr-02 07:54N 45°39' W 122°44'0 0.0
2017-Apr-02 07:30N 45°39' W 122°44'0 0.0
2017-Apr-02 07:00N 45°39' W 122°44'0 0.0
2017-Apr-02 06:30N 45°39' W 122°44'0 0.0
2017-Apr-02 06:00N 45°39' W 122°44'0 0.0
2017-Apr-02 05:30N 45°39' W 122°44'0 0.0
2017-Apr-02 05:00N 45°39' W 122°44'0 0.0
2017-Apr-02 04:30N 45°39' W 122°44'0 0.0
2017-Apr-02 04:00N 45°39' W 122°44'0 0.0
2017-Apr-02 03:30N 45°39' W 122°44'0 0.0
2017-Apr-02 03:00N 45°39' W 122°44'0 0.0
2017-Apr-02 02:30N 45°39' W 122°44'0 0.0
2017-Apr-02 02:00N 45°39' W 122°44'0 0.0
2017-Apr-02 01:30N 45°39' W 122°44'0 0.0
2017-Apr-02 00:57N 45°39' W 122°44'0 0.0
2017-Apr-02 00:30N 45°39' W 122°44'0 0.0
2017-Apr-02 00:00N 45°39' W 122°44'0 0.0
2017-Apr-01 23:30N 45°39' W 122°44'0 0.0
2017-Apr-01 23:00N 45°39' W 122°44'0 0.0
2017-Apr-01 22:30N 45°39' W 122°44'0 0.0
2017-Apr-01 21:57N 45°39' W 122°44'0 0.0
2017-Apr-01 21:30N 45°39' W 122°44'  
Track history (hours):
 
Tides and Currents Weather Stations Pressure Air Temp Water Temp Dewpoint Dewpoint Depression Visibility Wind Speed Wind Dir Waves Ship Positions

Ruby Indah

Last reported at 2017-Apr-11 21:19 UTC. Time now 2017-May-29 18:56 UTC.
Position N 46°13' W 125°36'.
Warning: this ship's position is 47 days out of date.

Length 229 m; draft 12.9 m.

Type: Cargo ship. MMSI: 564748000.

Date/timePositionNaut miles runAvg speedWind from/ knotsBaromVisibWave heightAir tempDewpointWater temp
2017-Apr-11 21:19N 46°13' W 125°36'3 9.8
2017-Apr-11 20:59N 46°13' W 125°31'6 9.8
2017-Apr-11 20:25N 46°12' W 125°23'4 9.9
2017-Apr-11 20:00N 46°12' W 125°17'5 9.8
2017-Apr-11 19:30N 46°12' W 125°10'5 9.6
2017-Apr-11 19:00N 46°12' W 125°03'5 9.5
2017-Apr-11 18:31N 46°13' W 124°56'2 3.1
2017-Apr-11 18:00N 46°12' W 124°54'2 4.1
2017-Apr-11 17:30N 46°12' W 124°51'5 9.7
2017-Apr-11 17:00N 46°12' W 124°44'5 9.7
2017-Apr-11 16:30N 46°12' W 124°37'5 9.6
2017-Apr-11 16:00N 46°12' W 124°30'5 9.2
2017-Apr-11 15:30N 46°12' W 124°23'4 8.6
2017-Apr-11 15:00N 46°12' W 124°17'5 9.4
2017-Apr-11 14:30N 46°13' W 124°10'1010.1
2017-Apr-11 13:30N 46°12' W 123°56'510.5
2017-Apr-11 13:01N 46°12' W 123°48'611.8
2017-Apr-11 12:31N 46°15' W 123°41'713.0
2017-Apr-11 12:01N 46°16' W 123°32'510.2
2017-Apr-11 11:31N 46°13' W 123°25'5 9.4
2017-Apr-11 11:00N 46°09' W 123°22'612.2
2017-Apr-11 10:30N 46°10' W 123°14'611.9
2017-Apr-11 10:01N 46°10' W 123°05'612.2
2017-Apr-11 09:30N 46°06' W 122°58'510.0
2017-Apr-11 09:00N 46°03' W 122°53'510.1
2017-Apr-11 08:31N 45°58' W 122°50'612.1
2017-Apr-11 08:00N 45°53' W 122°48'612.1
2017-Apr-11 07:30N 45°47' W 122°46'612.6
2017-Apr-11 07:01N 45°40' W 122°46'2 3.5
2017-Apr-11 06:30N 45°39' W 122°46'0 0.0
2017-Apr-11 06:00N 45°39' W 122°46'0 0.0
2017-Apr-11 05:30N 45°39' W 122°46'0 0.0
2017-Apr-11 04:57N 45°39' W 122°46'0 0.0
2017-Apr-11 04:27N 45°39' W 122°46'0 0.0
2017-Apr-11 03:57N 45°39' W 122°46'0 0.0
2017-Apr-11 03:30N 45°39' W 122°46'0 0.0
2017-Apr-11 03:00N 45°39' W 122°46'0 0.0
2017-Apr-11 02:30N 45°39' W 122°46'0 0.0
2017-Apr-11 01:57N 45°39' W 122°46'0 0.0
2017-Apr-11 01:30N 45°39' W 122°46'0 0.0
2017-Apr-11 00:57N 45°39' W 122°46'0 0.0
2017-Apr-11 00:27N 45°39' W 122°46'0 0.0
2017-Apr-10 23:57N 45°39' W 122°46'0 0.0
2017-Apr-10 23:30N 45°39' W 122°46'0 0.0
2017-Apr-10 22:57N 45°39' W 122°46'0 0.0
2017-Apr-10 22:27N 45°39' W 122°46'0 0.0
2017-Apr-10 22:00N 45°39' W 122°46'0 0.0
2017-Apr-10 21:27N 45°39' W 122°46'0 0.0
2017-Apr-10 21:00N 45°39' W 122°46'0 0.0
2017-Apr-10 20:27N 45°39' W 122°46'0 0.0
2017-Apr-10 20:00N 45°39' W 122°46'0 0.0
2017-Apr-10 19:30N 45°39' W 122°46'0 0.0
2017-Apr-10 19:00N 45°39' W 122°46'0 0.0
2017-Apr-10 18:27N 45°39' W 122°46'0 0.0
2017-Apr-10 18:00N 45°39' W 122°46'0 0.0
2017-Apr-10 17:30N 45°39' W 122°46'0 0.0
2017-Apr-10 16:57N 45°39' W 122°46'0 0.0
2017-Apr-10 16:30N 45°39' W 122°46'0 0.0
2017-Apr-10 16:00N 45°39' W 122°46'0 0.0
2017-Apr-10 15:30N 45°39' W 122°46'0 0.0
2017-Apr-10 15:00N 45°39' W 122°46'0 0.0
2017-Apr-10 13:59N 45°39' W 122°46'0 0.0
2017-Apr-10 13:29N 45°39' W 122°46'0 0.0
2017-Apr-10 13:00N 45°39' W 122°46'0 0.0
2017-Apr-10 12:26N 45°39' W 122°46'0 0.0
2017-Apr-10 11:59N 45°39' W 122°46'0 0.0
2017-Apr-10 11:26N 45°39' W 122°46'0 0.0
2017-Apr-10 10:59N 45°39' W 122°46'0 0.0
2017-Apr-10 10:29N 45°39' W 122°46'0 0.0
2017-Apr-10 09:59N 45°39' W 122°46'0 0.0
2017-Apr-10 09:29N 45°39' W 122°46'0 0.0
2017-Apr-10 08:56N 45°39' W 122°46'0 0.0
2017-Apr-10 08:29N 45°39' W 122°46'0 0.0
2017-Apr-10 07:59N 45°39' W 122°46'0 0.0
2017-Apr-10 07:29N 45°39' W 122°46'0 0.0
2017-Apr-10 06:59N 45°39' W 122°46'0 0.0
2017-Apr-10 06:29N 45°39' W 122°46'0 0.0
2017-Apr-10 05:56N 45°39' W 122°46'0 0.0
2017-Apr-10 05:29N 45°39' W 122°46'0 0.0
2017-Apr-10 04:56N 45°39' W 122°46'0 0.0
2017-Apr-10 04:26N 45°39' W 122°46'0 0.0
2017-Apr-10 03:59N 45°39' W 122°46'0 0.0
2017-Apr-10 03:29N 45°39' W 122°46'0 0.0
2017-Apr-10 02:59N 45°39' W 122°46'0 0.0
2017-Apr-10 02:29N 45°39' W 122°46'0 0.0
2017-Apr-10 01:53N 45°39' W 122°46'0 0.0
2017-Apr-10 01:26N 45°39' W 122°46'0 0.0
2017-Apr-10 00:59N 45°39' W 122°46'0 0.0
2017-Apr-10 00:29N 45°39' W 122°46'0 0.0
2017-Apr-09 23:59N 45°39' W 122°46'0 0.0
2017-Apr-09 23:29N 45°39' W 122°46'0 0.0
2017-Apr-09 22:59N 45°39' W 122°46'0 0.0
2017-Apr-09 22:29N 45°39' W 122°46'0 0.0
2017-Apr-09 21:59N 45°39' W 122°46'0 0.0
2017-Apr-09 21:29N 45°39' W 122°46'0 0.0
2017-Apr-09 20:59N 45°39' W 122°46'0 0.0
2017-Apr-09 20:29N 45°39' W 122°46'0 0.0
2017-Apr-09 19:59N 45°39' W 122°46'0 0.0
2017-Apr-09 19:29N 45°39' W 122°46'0 0.0
2017-Apr-09 18:59N 45°39' W 122°46'0 0.0
2017-Apr-09 18:26N 45°39' W 122°46'0 0.0
2017-Apr-09 17:59N 45°39' W 122°46'0 0.0
2017-Apr-09 17:29N 45°39' W 122°46'0 0.0
2017-Apr-09 16:53N 45°39' W 122°46'0 0.0
2017-Apr-09 16:29N 45°39' W 122°46'0 0.0
2017-Apr-09 15:59N 45°39' W 122°46'0 0.0
2017-Apr-09 15:29N 45°39' W 122°46'0 0.0
2017-Apr-09 14:59N 45°39' W 122°46'0 0.0
2017-Apr-09 14:29N 45°39' W 122°46'0 0.0
2017-Apr-09 13:29N 45°39' W 122°46'0 0.0
2017-Apr-09 12:56N 45°39' W 122°46'0 0.0
2017-Apr-09 12:26N 45°39' W 122°46'0 0.0
2017-Apr-09 11:59N 45°39' W 122°46'0 0.0
2017-Apr-09 11:29N 45°39' W 122°46'0 0.0
2017-Apr-09 10:59N 45°39' W 122°46'0 0.0
2017-Apr-09 10:26N 45°39' W 122°46'0 0.0
2017-Apr-09 09:56N 45°39' W 122°46'0 0.0
2017-Apr-09 09:26N 45°39' W 122°46'0 0.0
2017-Apr-09 08:59N 45°39' W 122°46'0 0.0
2017-Apr-09 08:29N 45°39' W 122°46'0 0.0
2017-Apr-09 07:59N 45°39' W 122°46'0 0.0
2017-Apr-09 07:29N 45°39' W 122°46'0 0.0
2017-Apr-09 06:59N 45°39' W 122°46'0 0.0
2017-Apr-09 06:29N 45°39' W 122°46'0 0.0
2017-Apr-09 05:59N 45°39' W 122°46'0 0.0
2017-Apr-09 05:29N 45°39' W 122°46'0 0.0
2017-Apr-09 04:55N 45°39' W 122°46'0 0.0
2017-Apr-09 04:28N 45°39' W 122°46'0 0.0
2017-Apr-09 03:58N 45°39' W 122°46'0 0.0
2017-Apr-09 03:28N 45°39' W 122°46'0 0.0
2017-Apr-09 02:58N 45°39' W 122°46'0 0.0
2017-Apr-09 02:28N 45°39' W 122°46'0 0.0
2017-Apr-09 01:55N 45°39' W 122°46'0 0.0
2017-Apr-09 01:28N 45°39' W 122°46'0 0.0
2017-Apr-09 00:58N 45°39' W 122°46'0 0.0
2017-Apr-09 00:25N 45°39' W 122°46'0 0.0
2017-Apr-08 23:55N 45°39' W 122°46'0 0.0
2017-Apr-08 23:25N 45°39' W 122°46'0 0.0
2017-Apr-08 22:55N 45°39' W 122°46'0 0.0
2017-Apr-08 22:28N 45°39' W 122°46'0 0.0
2017-Apr-08 21:58N 45°39' W 122°46'0 0.0
2017-Apr-08 21:28N 45°39' W 122°46'0 0.0
2017-Apr-08 20:58N 45°39' W 122°46'0 0.0
2017-Apr-08 20:28N 45°39' W 122°46'0 0.0
2017-Apr-08 19:58N 45°39' W 122°46'0 0.0
2017-Apr-08 19:28N 45°39' W 122°46'0 0.0
2017-Apr-08 18:58N 45°39' W 122°46'0 0.0
2017-Apr-08 18:30N 45°39' W 122°46'0 0.0
2017-Apr-08 17:58N 45°39' W 122°46'0 0.0
2017-Apr-08 17:28N 45°39' W 122°46'0 0.0
2017-Apr-08 16:58N 45°39' W 122°46'0 0.0
2017-Apr-08 16:28N 45°39' W 122°46'0 0.0
2017-Apr-08 15:55N 45°39' W 122°46'0 0.0
2017-Apr-08 15:28N 45°39' W 122°46'0 0.0
2017-Apr-08 14:58N 45°39' W 122°46'0 0.0
2017-Apr-08 14:28N 45°39' W 122°46'0 0.0
2017-Apr-08 13:28N 45°39' W 122°46'0 0.0
2017-Apr-08 12:58N 45°39' W 122°46'0 0.0
2017-Apr-08 12:28N 45°39' W 122°46'0 0.0
2017-Apr-08 11:58N 45°39' W 122°46'0 0.0
2017-Apr-08 11:28N 45°39' W 122°46'0 0.0
2017-Apr-08 10:58N 45°39' W 122°46'0 0.0
2017-Apr-08 10:28N 45°39' W 122°46'0 0.0
2017-Apr-08 09:58N 45°39' W 122°46'0 0.0
2017-Apr-08 09:28N 45°39' W 122°46'0 0.0
2017-Apr-08 08:58N 45°39' W 122°46'0 0.0
2017-Apr-08 08:28N 45°39' W 122°46'0 0.0
2017-Apr-08 07:55N 45°39' W 122°46'0 0.0
2017-Apr-08 07:28N 45°39' W 122°46'0 0.0
2017-Apr-08 06:58N 45°39' W 122°46'0 0.0
2017-Apr-08 06:28N 45°39' W 122°46'0 0.0
2017-Apr-08 05:55N 45°39' W 122°46'0 0.0
2017-Apr-08 05:28N 45°39' W 122°46'0 0.0
2017-Apr-08 04:58N 45°39' W 122°46'0 0.0
2017-Apr-08 04:28N 45°39' W 122°46'0 0.0
2017-Apr-08 03:58N 45°39' W 122°46'0 0.0
2017-Apr-08 03:25N 45°39' W 122°46'0 0.0
2017-Apr-08 02:58N 45°39' W 122°46'0 0.0
2017-Apr-08 02:28N 45°39' W 122°46'0 0.0
2017-Apr-08 01:58N 45°39' W 122°46'0 0.0
2017-Apr-08 01:28N 45°39' W 122°46'0 0.0
2017-Apr-08 00:58N 45°39' W 122°46'0 0.0
2017-Apr-08 00:28N 45°39' W 122°46'0 0.0
2017-Apr-07 23:58N 45°39' W 122°46'0 0.0
2017-Apr-07 23:25N 45°39' W 122°46'0 0.0
2017-Apr-07 23:01N 45°39' W 122°46'0 0.0
2017-Apr-07 22:31N 45°39' W 122°46'0 0.0
2017-Apr-07 22:01N 45°39' W 122°46'0 0.0
2017-Apr-07 21:30N 45°39' W 122°46'0 0.0
2017-Apr-07 21:00N 45°39' W 122°46'0 0.0
2017-Apr-07 20:31N 45°39' W 122°46'0 0.0
2017-Apr-07 20:00N 45°39' W 122°46'0 0.0
2017-Apr-07 19:30N 45°39' W 122°46'0 0.0
2017-Apr-07 19:00N 45°39' W 122°46'0 0.0
2017-Apr-07 18:30N 45°39' W 122°46'0 0.0
2017-Apr-07 17:57N 45°39' W 122°46'0 0.0
2017-Apr-07 17:30N 45°39' W 122°46'0 0.0
2017-Apr-07 16:57N 45°39' W 122°46'0 0.0
2017-Apr-07 16:27N 45°39' W 122°46'0 0.0
2017-Apr-07 16:00N 45°39' W 122°46'0 0.0
2017-Apr-07 15:27N 45°39' W 122°46'0 0.0
2017-Apr-07 14:57N 45°39' W 122°46'0 0.0
2017-Apr-07 13:51N 45°39' W 122°46'0 0.0
2017-Apr-07 13:30N 45°39' W 122°46'0 0.0
2017-Apr-07 13:00N 45°39' W 122°46'0 0.0
2017-Apr-07 12:30N 45°39' W 122°46'0 0.0
2017-Apr-07 12:00N 45°39' W 122°46'0 0.0
2017-Apr-07 11:30N 45°39' W 122°46'0 0.0
2017-Apr-07 11:00N 45°39' W 122°46'0 0.0
2017-Apr-07 10:30N 45°39' W 122°46'0 0.0
2017-Apr-07 10:00N 45°39' W 122°46'0 0.0
2017-Apr-07 09:30N 45°39' W 122°46'0 0.0
2017-Apr-07 09:00N 45°39' W 122°46'0 0.0
2017-Apr-07 08:30N 45°39' W 122°46'0 0.0
2017-Apr-07 07:39N 45°39' W 122°46'0 0.0
2017-Apr-07 07:30N 45°39' W 122°46'0 0.0
2017-Apr-07 07:00N 45°39' W 122°46'0 0.0
2017-Apr-07 06:30N 45°39' W 122°46'0 0.0
2017-Apr-07 06:00N 45°39' W 122°46'0 0.0
2017-Apr-07 05:30N 45°39' W 122°46'0 0.0
2017-Apr-07 04:57N 45°39' W 122°46'0 0.0
2017-Apr-07 04:30N 45°39' W 122°46'0 0.0
2017-Apr-07 03:57N 45°39' W 122°46'0 0.0
2017-Apr-07 03:30N 45°39' W 122°46'0 0.0
2017-Apr-07 03:00N 45°39' W 122°46'0 0.0
2017-Apr-07 02:27N 45°39' W 122°46'0 0.0
2017-Apr-07 02:00N 45°39' W 122°46'0 0.0
2017-Apr-07 01:30N 45°39' W 122°46'0 0.0
2017-Apr-07 01:00N 45°39' W 122°46'0 0.0
2017-Apr-07 00:30N 45°39' W 122°46'0 0.0
2017-Apr-07 00:00N 45°39' W 122°46'0 0.0
2017-Apr-06 23:30N 45°39' W 122°46'0 0.0
2017-Apr-06 23:00N 45°39' W 122°46'0 0.0
2017-Apr-06 22:30N 45°39' W 122°46'0 0.1
2017-Apr-06 21:57N 45°39' W 122°46'0 0.0
2017-Apr-06 21:30N 45°39' W 122°46'0 0.0
2017-Apr-06 21:00N 45°39' W 122°46'0 0.0
2017-Apr-06 20:24N 45°39' W 122°46'0 0.0
2017-Apr-06 20:00N 45°39' W 122°46'0 0.0
2017-Apr-06 19:30N 45°39' W 122°46'0 0.0
2017-Apr-06 18:51N 45°39' W 122°46'0 0.0
2017-Apr-06 18:30N 45°39' W 122°46'0 0.0
2017-Apr-06 18:00N 45°39' W 122°46'0 0.0
2017-Apr-06 17:30N 45°39' W 122°46'0 0.0
2017-Apr-06 17:00N 45°39' W 122°46'0 0.0
2017-Apr-06 16:30N 45°39' W 122°46'0 0.0
2017-Apr-06 16:00N 45°39' W 122°46'0 0.0
2017-Apr-06 15:30N 45°39' W 122°46'0 0.0
2017-Apr-06 15:00N 45°39' W 122°46'0 0.0
2017-Apr-06 14:27N 45°39' W 122°46'0 0.0
2017-Apr-06 13:30N 45°39' W 122°46'0 0.0
2017-Apr-06 12:57N 45°39' W 122°46'0 0.0
2017-Apr-06 12:30N 45°39' W 122°46'0 0.0
2017-Apr-06 11:59N 45°39' W 122°46'0 0.0
2017-Apr-06 11:29N 45°39' W 122°46'0 0.0
2017-Apr-06 10:59N 45°39' W 122°46'0 0.0
2017-Apr-06 10:29N 45°39' W 122°46'0 0.0
2017-Apr-06 09:59N 45°39' W 122°46'0 0.0
2017-Apr-06 09:29N 45°39' W 122°46'0 0.0
2017-Apr-06 08:59N 45°39' W 122°46'0 0.0
2017-Apr-06 08:29N 45°39' W 122°46'0 0.0
2017-Apr-06 07:59N 45°39' W 122°46'0 0.0
2017-Apr-06 07:29N 45°39' W 122°46'0 0.0
2017-Apr-06 06:59N 45°39' W 122°46'0 0.0
2017-Apr-06 06:29N 45°39' W 122°46'0 0.0
2017-Apr-06 05:59N 45°39' W 122°46'0 0.0
2017-Apr-06 05:29N 45°39' W 122°46'0 0.0
2017-Apr-06 04:59N 45°39' W 122°46'0 0.0
2017-Apr-06 04:29N 45°39' W 122°46'0 0.0
2017-Apr-06 03:56N 45°39' W 122°46'0 0.0
2017-Apr-06 03:29N 45°39' W 122°46'0 0.0
2017-Apr-06 02:59N 45°39' W 122°46'0 0.0
2017-Apr-06 02:29N 45°39' W 122°46'0 0.0
2017-Apr-06 01:59N 45°39' W 122°46'0 0.0
2017-Apr-06 01:29N 45°39' W 122°46'0 0.0
2017-Apr-06 00:53N 45°39' W 122°46'0 0.0
2017-Apr-06 00:29N 45°39' W 122°46'0 0.0
2017-Apr-05 23:59N 45°39' W 122°46'0 0.0
2017-Apr-05 23:29N 45°39' W 122°46'0 0.0
2017-Apr-05 22:59N 45°39' W 122°46'0 0.0
2017-Apr-05 22:29N 45°39' W 122°46'0 0.0
2017-Apr-05 21:59N 45°39' W 122°46'0 0.0
2017-Apr-05 21:29N 45°39' W 122°46'0 0.0
2017-Apr-05 20:59N 45°39' W 122°46'0 0.0
2017-Apr-05 20:29N 45°39' W 122°46'0 0.0
2017-Apr-05 19:59N 45°39' W 122°46'0 0.0
2017-Apr-05 19:29N 45°39' W 122°46'0 0.1
2017-Apr-05 18:59N 45°39' W 122°46'0 0.0
2017-Apr-05 18:29N 45°39' W 122°46'0 0.0
2017-Apr-05 17:59N 45°39' W 122°46'0 0.0
2017-Apr-05 17:26N 45°39' W 122°46'0 0.0
2017-Apr-05 16:59N 45°39' W 122°46'0 0.0
2017-Apr-05 16:29N 45°39' W 122°46'0 0.0
2017-Apr-05 15:56N 45°39' W 122°46'0 0.0
2017-Apr-05 15:29N 45°39' W 122°46'0 0.0
2017-Apr-05 14:59N 45°39' W 122°46'0 0.0
2017-Apr-05 14:26N 45°39' W 122°46'0 0.0
2017-Apr-05 13:29N 45°39' W 122°46'0 0.0
2017-Apr-05 12:59N 45°39' W 122°46'0 0.0
2017-Apr-05 12:29N 45°39' W 122°46'0 0.0
2017-Apr-05 11:59N 45°39' W 122°46'0 0.0
2017-Apr-05 11:29N 45°39' W 122°46'0 0.0
2017-Apr-05 10:59N 45°39' W 122°46'0 0.0
2017-Apr-05 10:29N 45°39' W 122°46'0 0.0
2017-Apr-05 09:59N 45°39' W 122°46'0 0.0
2017-Apr-05 09:29N 45°39' W 122°46'0 0.0
2017-Apr-05 08:59N 45°39' W 122°46'0 0.0
2017-Apr-05 08:29N 45°39' W 122°46'0 0.0
2017-Apr-05 07:59N 45°39' W 122°46'0 0.0
2017-Apr-05 07:29N 45°39' W 122°46'0 0.0
2017-Apr-05 06:56N 45°39' W 122°46'0 0.0
2017-Apr-05 06:29N 45°39' W 122°46'0 0.0
2017-Apr-05 05:59N 45°39' W 122°46'0 0.0
2017-Apr-05 05:26N 45°39' W 122°46'0 0.0
2017-Apr-05 04:59N 45°39' W 122°46'0 0.0
2017-Apr-05 04:28N 45°39' W 122°46'0 0.0
2017-Apr-05 03:58N 45°39' W 122°46'0 0.0
2017-Apr-05 03:28N 45°39' W 122°46'0 0.0
2017-Apr-05 02:58N 45°39' W 122°46'0 0.0
2017-Apr-05 02:28N 45°39' W 122°46'0 0.0
2017-Apr-05 01:58N 45°39' W 122°46'0 0.0
2017-Apr-05 01:28N 45°39' W 122°46'0 0.0
2017-Apr-05 00:58N 45°39' W 122°46'0 0.0
2017-Apr-05 00:25N 45°39' W 122°46'0 0.0
2017-Apr-04 23:58N 45°39' W 122°46'0 0.0
2017-Apr-04 23:28N 45°39' W 122°46'0 0.0
2017-Apr-04 22:58N 45°39' W 122°46'0 0.0
2017-Apr-04 22:28N 45°39' W 122°46'0 0.0
2017-Apr-04 21:58N 45°39' W 122°46'0 0.0
2017-Apr-04 21:28N 45°39' W 122°46'0 0.0
2017-Apr-04 20:58N 45°39' W 122°46'0 0.0
2017-Apr-04 20:30N 45°39' W 122°46'1 1.8
2017-Apr-04 20:00N 45°39' W 122°45'1 1.7
2017-Apr-04 19:31N 45°39' W 122°44'0 0.0
2017-Apr-04 18:56N 45°39' W 122°44'0 0.0
2017-Apr-04 18:29N 45°39' W 122°44'0 0.0
2017-Apr-04 17:59N 45°39' W 122°44'0 0.1
2017-Apr-04 17:29N 45°39' W 122°45'0 0.1
2017-Apr-04 16:59N 45°39' W 122°44'0 0.0
2017-Apr-04 16:29N 45°39' W 122°44'0 0.0
2017-Apr-04 15:59N 45°39' W 122°44'0 0.0
2017-Apr-04 15:29N 45°39' W 122°44'0 0.0
2017-Apr-04 14:59N 45°39' W 122°44'0 0.0
2017-Apr-04 14:29N 45°39' W 122°44'0 0.0
2017-Apr-04 13:29N 45°39' W 122°44'0 0.0
2017-Apr-04 12:59N 45°39' W 122°44'0 0.0
2017-Apr-04 12:29N 45°39' W 122°44'0 0.0
2017-Apr-04 11:59N 45°39' W 122°44'0 0.0
2017-Apr-04 11:29N 45°39' W 122°44'0 0.0
2017-Apr-04 10:59N 45°39' W 122°44'0 0.0
2017-Apr-04 10:29N 45°39' W 122°44'0 0.0
2017-Apr-04 09:59N 45°39' W 122°44'0 0.0
2017-Apr-04 09:29N 45°39' W 122°44'0 0.0
2017-Apr-04 08:59N 45°39' W 122°44'0 0.0
2017-Apr-04 08:29N 45°39' W 122°44'0 0.0
2017-Apr-04 07:59N 45°39' W 122°44'0 0.0
2017-Apr-04 07:29N 45°39' W 122°44'0 0.0
2017-Apr-04 06:59N 45°39' W 122°44'0 0.0
2017-Apr-04 06:29N 45°39' W 122°44'0 0.0
2017-Apr-04 05:59N 45°39' W 122°44'0 0.0
2017-Apr-04 05:29N 45°39' W 122°44'0 0.0
2017-Apr-04 04:59N 45°39' W 122°44'0 0.0
2017-Apr-04 04:29N 45°39' W 122°44'0 0.0
2017-Apr-04 03:56N 45°39' W 122°44'0 0.0
2017-Apr-04 03:29N 45°39' W 122°44'0 0.0
2017-Apr-04 02:59N 45°39' W 122°44'0 0.0
2017-Apr-04 02:29N 45°39' W 122°44'0 0.0
2017-Apr-04 01:59N 45°39' W 122°44'0 0.0
2017-Apr-04 01:29N 45°39' W 122°44'0 0.0
2017-Apr-04 00:56N 45°39' W 122°44'0 0.0
2017-Apr-04 00:29N 45°39' W 122°44'0 0.0
2017-Apr-03 23:59N 45°39' W 122°44'0 0.0
2017-Apr-03 23:29N 45°39' W 122°44'0 0.0
2017-Apr-03 22:53N 45°39' W 122°44'0 0.0
2017-Apr-03 22:29N 45°39' W 122°44'0 0.0
2017-Apr-03 21:59N 45°39' W 122°44'0 0.0
2017-Apr-03 21:29N 45°39' W 122°44'0 0.0
2017-Apr-03 20:59N 45°39' W 122°44'0 0.0
2017-Apr-03 20:29N 45°39' W 122°44'0 0.0
2017-Apr-03 19:59N 45°39' W 122°44'0 0.0
2017-Apr-03 19:29N 45°39' W 122°44'0 0.0
2017-Apr-03 18:56N 45°39' W 122°44'0 0.0
2017-Apr-03 18:29N 45°39' W 122°44'0 0.0
2017-Apr-03 17:59N 45°39' W 122°44'0 0.0
2017-Apr-03 17:28N 45°39' W 122°44'0 0.0
2017-Apr-03 16:52N 45°39' W 122°44'0 0.0
2017-Apr-03 16:28N 45°39' W 122°44'0 0.0
2017-Apr-03 15:58N 45°39' W 122°44'0 0.0
2017-Apr-03 15:28N 45°39' W 122°44'0 0.0
2017-Apr-03 14:58N 45°39' W 122°44'0 0.0
2017-Apr-03 13:58N 45°39' W 122°44'0 0.0
2017-Apr-03 13:28N 45°39' W 122°44'0 0.0
2017-Apr-03 12:58N 45°39' W 122°44'0 0.0
2017-Apr-03 12:28N 45°39' W 122°44'0 0.0
2017-Apr-03 11:58N 45°39' W 122°44'0 0.0
2017-Apr-03 11:28N 45°39' W 122°44'0 0.0
2017-Apr-03 10:58N 45°39' W 122°44'0 0.0
2017-Apr-03 10:28N 45°39' W 122°44'0 0.0
2017-Apr-03 09:58N 45°39' W 122°44'0 0.0
2017-Apr-03 09:28N 45°39' W 122°44'0 0.0
2017-Apr-03 08:58N 45°39' W 122°44'0 0.0
2017-Apr-03 08:28N 45°39' W 122°44'0 0.0
2017-Apr-03 07:58N 45°39' W 122°44'0 0.0
2017-Apr-03 07:28N 45°39' W 122°44'0 0.0
2017-Apr-03 06:58N 45°39' W 122°44'0 0.0
2017-Apr-03 06:28N 45°39' W 122°44'0 0.0
2017-Apr-03 05:58N 45°39' W 122°44'0 0.0
2017-Apr-03 05:28N 45°39' W 122°44'0 0.0
2017-Apr-03 04:58N 45°39' W 122°44'0 0.0
2017-Apr-03 04:28N 45°39' W 122°44'0 0.0
2017-Apr-03 03:58N 45°39' W 122°44'0 0.0
2017-Apr-03 03:28N 45°39' W 122°44'0 0.0
2017-Apr-03 02:55N 45°39' W 122°44'0 0.0
2017-Apr-03 02:16N 45°39' W 122°44'0 0.0
2017-Apr-03 01:58N 45°39' W 122°44'0 0.0
2017-Apr-03 01:28N 45°39' W 122°44'0 0.0
2017-Apr-03 00:58N 45°39' W 122°44'0 0.1
2017-Apr-03 00:28N 45°39' W 122°45'0 0.1
2017-Apr-02 23:58N 45°39' W 122°44'0 0.0
2017-Apr-02 23:28N 45°39' W 122°44'0 0.0
2017-Apr-02 22:55N 45°39' W 122°44'0 0.0
2017-Apr-02 22:28N 45°39' W 122°44'0 0.0
2017-Apr-02 21:58N 45°39' W 122°44'0 0.0
2017-Apr-02 21:28N 45°39' W 122°44'0 0.0
2017-Apr-02 20:58N 45°39' W 122°44'0 0.0
2017-Apr-02 20:28N 45°39' W 122°44'0 0.0
2017-Apr-02 19:58N 45°39' W 122°44'0 0.0
2017-Apr-02 19:28N 45°39' W 122°44'0 0.0
2017-Apr-02 18:58N 45°39' W 122°44'0 0.0
2017-Apr-02 18:28N 45°39' W 122°44'0 0.0
2017-Apr-02 17:58N 45°39' W 122°44'0 0.0
2017-Apr-02 17:28N 45°39' W 122°44'0 0.0
2017-Apr-02 16:58N 45°39' W 122°44'0 0.0
2017-Apr-02 16:28N 45°39' W 122°44'0 0.0
2017-Apr-02 15:58N 45°39' W 122°44'0 0.0
2017-Apr-02 15:28N 45°39' W 122°44'0 0.0
2017-Apr-02 14:58N 45°39' W 122°44'0 0.0
2017-Apr-02 14:28N 45°39' W 122°44'0 0.0
2017-Apr-02 13:28N 45°39' W 122°44'0 0.0
2017-Apr-02 12:58N 45°39' W 122°44'0 0.0
2017-Apr-02 12:28N 45°39' W 122°44'0 0.0
2017-Apr-02 11:58N 45°39' W 122°44'0 0.0
2017-Apr-02 11:28N 45°39' W 122°44'0 0.0
2017-Apr-02 11:01N 45°39' W 122°44'0 0.0
2017-Apr-02 10:30N 45°39' W 122°44'0 0.0
2017-Apr-02 09:58N 45°39' W 122°44'0 0.0
2017-Apr-02 09:31N 45°39' W 122°44'0 0.0
2017-Apr-02 09:00N 45°39' W 122°44'0 0.0
2017-Apr-02 08:30N 45°39' W 122°44'0 0.0
2017-Apr-02 07:54N 45°39' W 122°44'0 0.0
2017-Apr-02 07:30N 45°39' W 122°44'0 0.0
2017-Apr-02 07:00N 45°39' W 122°44'0 0.0
2017-Apr-02 06:30N 45°39' W 122°44'0 0.0
2017-Apr-02 06:00N 45°39' W 122°44'0 0.0
2017-Apr-02 05:30N 45°39' W 122°44'0 0.0
2017-Apr-02 05:00N 45°39' W 122°44'0 0.0
2017-Apr-02 04:30N 45°39' W 122°44'0 0.0
2017-Apr-02 04:00N 45°39' W 122°44'0 0.0
2017-Apr-02 03:30N 45°39' W 122°44'0 0.0
2017-Apr-02 03:00N 45°39' W 122°44'0 0.0
2017-Apr-02 02:30N 45°39' W 122°44'0 0.0
2017-Apr-02 02:00N 45°39' W 122°44'0 0.0
2017-Apr-02 01:30N 45°39' W 122°44'0 0.0
2017-Apr-02 00:57N 45°39' W 122°44'0 0.0
2017-Apr-02 00:30N 45°39' W 122°44'0 0.0
2017-Apr-02 00:00N 45°39' W 122°44'0 0.0
2017-Apr-01 23:30N 45°39' W 122°44'0 0.0
2017-Apr-01 23:00N 45°39' W 122°44'0 0.0
2017-Apr-01 22:30N 45°39' W 122°44'0 0.0
2017-Apr-01 21:57N 45°39' W 122°44'0 0.0
2017-Apr-01 21:30N 45°39' W 122°44'  

Dump ship's entire track history